Time;durP1;ratioP1;P1;durP2;ratioP2;P2;SDS_P1;SDS_P2;PMS_P1;PMS_P2;Temp;Humidity;BMP_temperature;BMP_pressure;BME280_temperature;BME280_humidity;BME280_pressure;Samples;Min_cycle;Max_cycle;Signal;HPM_P1;HPM_P2
2022/07/31 00:02:06;;;;;;;18.08;11.75;;;;;;;17.98;77.07;101738.84;6125722;23;20010;-73
2022/07/31 00:04:31;;;;;;;14.50;11.30;;;;;;;17.99;77.88;101733.53;6125592;23;20329;-75
2022/07/31 00:06:57;;;;;;;14.27;11.30;;;;;;;17.97;77.47;101735.41;6125557;23;20001;-73
2022/07/31 00:09:22;;;;;;;17.88;11.80;;;;;;;18.03;77.35;101731.50;6126248;23;20010;-73
2022/07/31 00:11:47;;;;;;;15.77;11.40;;;;;;;18.01;77.58;101726.38;6125629;23;20017;-73
2022/07/31 00:14:13;;;;;;;14.80;11.75;;;;;;;18.03;78.23;101734.94;6125512;23;20025;-72
2022/07/31 00:16:38;;;;;;;13.93;10.88;;;;;;;18.06;77.34;101736.47;6125460;23;20340;-74
2022/07/31 00:19:03;;;;;;;15.70;12.07;;;;;;;18.09;77.20;101728.38;6126029;23;20009;-72
2022/07/31 00:21:29;;;;;;;16.17;10.85;;;;;;;18.14;77.42;101728.00;6125601;23;20029;-73
2022/07/31 00:23:55;;;;;;;14.32;11.10;;;;;;;18.08;78.14;101723.25;6125915;23;20009;-74
2022/07/31 00:26:20;;;;;;;13.48;10.23;;;;;;;18.02;77.76;101725.44;6126129;23;20006;-72
2022/07/31 00:28:46;;;;;;;16.35;11.38;;;;;;;18.04;78.00;101720.06;6125485;23;20073;-72
2022/07/31 00:31:12;;;;;;;15.05;11.07;;;;;;;17.96;78.52;101720.69;6125963;23;20328;-72
2022/07/31 00:33:37;;;;;;;16.92;11.25;;;;;;;17.97;78.43;101722.34;6125591;23;20005;-73
2022/07/31 00:36:03;;;;;;;14.05;10.77;;;;;;;17.83;79.08;101699.09;6125570;23;20009;-75
2022/07/31 00:38:28;;;;;;;11.60;9.95;;;;;;;17.82;78.70;101705.28;6099455;23;20009;-72
2022/07/31 00:40:53;;;;;;;14.82;10.13;;;;;;;17.77;79.00;101708.25;6125595;23;20025;-73
2022/07/31 00:43:19;;;;;;;16.15;10.68;;;;;;;17.64;78.53;101685.81;6125506;23;20417;-74
2022/07/31 00:45:44;;;;;;;17.88;11.48;;;;;;;17.97;76.52;101721.50;6125504;23;20006;-74
2022/07/31 00:48:10;;;;;;;15.27;11.05;;;;;;;18.06;74.93;101710.31;6125665;23;20125;-72
2022/07/31 00:50:36;;;;;;;17.02;10.85;;;;;;;18.09;75.50;101717.91;6125573;23;20026;-72
2022/07/31 00:53:02;;;;;;;16.13;11.10;;;;;;;18.10;74.21;101714.38;6125306;23;20010;-73
2022/07/31 00:55:28;;;;;;;12.38;9.88;;;;;;;18.00;75.45;101693.38;6125700;23;20342;-73
2022/07/31 00:57:53;;;;;;;15.00;9.80;;;;;;;18.04;76.15;101707.84;6100250;23;20435;-75
2022/07/31 01:00:18;;;;;;;12.50;9.40;;;;;;;18.09;74.92;101704.84;6125572;23;20006;-77
2022/07/31 01:02:43;;;;;;;15.35;10.25;;;;;;;18.00;73.95;101680.31;6125369;23;20006;-72
2022/07/31 01:05:09;;;;;;;14.52;9.50;;;;;;;18.08;74.97;101697.13;6125528;23;20032;-79
2022/07/31 01:07:34;;;;;;;13.23;9.00;;;;;;;18.04;75.05;101692.16;6126229;23;20002;-79
2022/07/31 01:10:05;;;;;;;16.80;9.98;;;;;;;18.08;72.85;101697.13;6127445;23;20474;-75
2022/07/31 01:12:38;;;;;;;14.40;9.38;;;;;;;18.08;73.93;101695.34;6127263;23;20006;-74
2022/07/31 01:15:06;;;;;;;15.25;9.02;;;;;;;17.95;74.56;101687.66;6127449;23;20012;-74
2022/07/31 01:17:34;;;;;;;14.60;8.60;;;;;;;17.93;74.33;101683.53;6127104;23;20041;-78
2022/07/31 01:20:00;;;;;;;9.90;7.93;;;;;;;17.96;74.86;101689.31;6127256;23;20447;-78
2022/07/31 01:22:34;;;;;;;15.57;8.32;;;;;;;18.00;74.13;101692.53;6127533;23;20010;-81
2022/07/31 01:25:38;;;;;;;11.65;7.97;;;;;;;17.83;74.38;101672.16;6127314;23;20002;-73
2022/07/31 01:28:09;;;;;;;11.70;8.07;;;;;;;17.86;74.39;101704.09;6127554;23;20081;-80
2022/07/31 01:30:41;;;;;;;12.90;8.50;;;;;;;17.77;73.40;101692.56;6127141;23;20409;-77
2022/07/31 01:33:11;;;;;;;15.45;7.75;;;;;;;17.74;73.24;101681.56;6127030;23;20006;-73
2022/07/31 01:35:47;;;;;;;12.80;8.02;;;;;;;17.71;73.23;101679.19;6127246;23;20006;-81
2022/07/31 01:38:18;;;;;;;13.23;8.98;;;;;;;17.70;73.90;101690.59;6127359;23;20006;-72
2022/07/31 01:40:46;;;;;;;13.45;8.18;;;;;;;17.72;74.17;101696.53;6127114;23;20140;-81
2022/07/31 01:43:16;;;;;;;13.27;8.90;;;;;;;17.71;74.22;101698.31;6126997;23;20009;-82
2022/07/31 01:45:44;;;;;;;11.87;8.90;;;;;;;17.75;74.38;101698.88;6126838;23;20073;-77
2022/07/31 01:48:13;;;;;;;13.57;8.95;;;;;;;17.76;73.79;101701.38;6127331;23;20013;-77
2022/07/31 01:50:40;;;;;;;14.02;8.50;;;;;;;17.78;74.40;101693.41;6127443;23;20394;-74
2022/07/31 01:53:07;;;;;;;14.20;8.55;;;;;;;17.81;74.00;101695.78;6127238;23;20014;-72
2022/07/31 01:55:34;;;;;;;10.95;8.15;;;;;;;17.78;73.80;101691.63;6127162;23;20074;-80
2022/07/31 01:58:01;;;;;;;18.17;9.02;;;;;;;17.73;74.17;101687.72;6127008;23;20006;-76
2022/07/31 02:00:26;;;;;;;11.55;8.32;;;;;;;17.68;74.05;101689.84;6127148;23;20017;-73
2022/07/31 02:02:54;;;;;;;12.48;8.07;;;;;;;17.68;74.80;101702.91;6127068;23;20005;-82
2022/07/31 02:05:20;;;;;;;14.07;8.35;;;;;;;17.70;74.10;101695.81;6127343;23;20005;-74
2022/07/31 02:07:47;;;;;;;11.30;8.00;;;;;;;17.60;74.65;101689.59;6127043;23;20364;-73
2022/07/31 02:10:14;;;;;;;11.43;8.82;;;;;;;17.55;73.61;101682.16;6126870;23;20006;-81
2022/07/31 02:12:41;;;;;;;13.70;8.20;;;;;;;17.48;75.25;101681.78;6126805;23;20005;-80
2022/07/31 02:15:10;;;;;;;11.13;8.27;;;;;;;17.60;75.40;101697.44;6126848;23;20373;-80
2022/07/31 02:17:37;;;;;;;13.35;7.95;;;;;;;17.56;74.63;101683.81;6126628;23;20010;-80
2022/07/31 02:20:05;;;;;;;10.10;8.35;;;;;;;17.37;74.74;101655.69;6126230;23;20081;-80
2022/07/31 02:22:32;;;;;;;12.82;7.95;;;;;;;17.54;74.57;101679.66;6127049;23;20343;-73
2022/07/31 02:24:57;;;;;;;12.93;8.10;;;;;;;17.57;74.65;101685.47;6126874;23;20368;-77
2022/07/31 02:27:25;;;;;;;13.02;7.65;;;;;;;17.41;74.90;101667.56;6127022;23;20076;-74
2022/07/31 02:29:51;;;;;;;13.73;8.15;;;;;;;17.33;75.56;101666.50;6126708;23;20416;-73
2022/07/31 02:32:16;;;;;;;14.68;7.85;;;;;;;17.45;75.57;101689.88;6126919;23;20006;-79
2022/07/31 02:34:43;;;;;;;13.25;7.63;;;;;;;17.44;76.24;101690.81;6126834;23;20034;-81
2022/07/31 02:37:10;;;;;;;13.90;9.20;;;;;;;17.42;75.24;101695.34;6126562;23;20006;-74
2022/07/31 02:39:37;;;;;;;11.73;9.25;;;;;;;17.39;75.85;101697.34;6126864;23;20002;-82
2022/07/31 02:42:02;;;;;;;12.48;9.45;;;;;;;17.25;75.58;101681.94;6126476;23;20344;-76
2022/07/31 02:44:30;;;;;;;16.10;9.20;;;;;;;17.26;76.52;101689.63;6126645;23;20005;-81
2022/07/31 02:46:56;;;;;;;12.40;9.10;;;;;;;17.23;77.37;101681.22;6126578;23;20006;-78
2022/07/31 02:49:22;;;;;;;14.35;9.95;;;;;;;17.26;76.89;101694.03;6126635;23;20335;-80
2022/07/31 02:51:48;;;;;;;15.15;11.05;;;;;;;17.21;77.31;101683.97;6126295;23;20033;-80
2022/07/31 02:54:13;;;;;;;12.68;10.15;;;;;;;17.20;77.99;101688.31;6126865;23;20006;-81
2022/07/31 02:56:40;;;;;;;14.55;9.60;;;;;;;17.09;78.47;101669.22;6126478;23;20028;-82
2022/07/31 02:59:05;;;;;;;14.10;10.25;;;;;;;17.15;78.36;101679.19;6126429;23;20002;-79
2022/07/31 03:01:34;;;;;;;14.23;9.73;;;;;;;17.09;78.89;101677.88;6126599;23;20332;-77
2022/07/31 03:04:00;;;;;;;17.73;10.85;;;;;;;17.02;79.01;101668.88;6126093;23;20444;-82
2022/07/31 03:06:26;;;;;;;13.13;9.77;;;;;;;17.02;79.02;101678.50;6126558;23;20005;-74
2022/07/31 03:08:51;;;;;;;14.18;10.27;;;;;;;16.96;79.77;101673.72;6126731;23;20380;-78
2022/07/31 03:11:16;;;;;;;16.38;10.80;;;;;;;16.99;79.43;101670.88;6099531;23;20006;-81
2022/07/31 03:13:42;;;;;;;17.25;11.57;;;;;;;16.94;80.53;101663.41;6126076;23;20073;-77
2022/07/31 03:16:10;;;;;;;13.80;10.45;;;;;;;16.74;80.34;101631.03;6125956;23;20002;-82
2022/07/31 03:18:37;;;;;;;17.42;10.30;;;;;;;16.97;81.00;101671.00;6126365;23;20002;-80
2022/07/31 03:21:03;;;;;;;16.58;10.40;;;;;;;16.97;81.04;101662.34;6126503;23;20029;-82
2022/07/31 03:23:35;;;;;;;14.48;9.27;;;;;;;16.91;81.29;101656.66;6126253;23;20006;-74
2022/07/31 03:26:01;;;;;;;13.82;9.30;;;;;;;16.90;81.44;101657.59;6126409;23;20447;-80
2022/07/31 03:28:27;;;;;;;11.43;8.90;;;;;;;16.90;81.65;101665.41;6126367;23;20324;-81
2022/07/31 03:30:54;;;;;;;12.80;10.00;;;;;;;16.82;82.03;101657.38;6125987;23;20002;-82
2022/07/31 03:33:20;;;;;;;14.43;10.20;;;;;;;16.73;82.32;101650.22;6126060;23;20014;-78
2022/07/31 03:35:46;;;;;;;14.02;10.30;;;;;;;16.81;82.25;101655.72;6126082;23;20002;-82
2022/07/31 03:38:11;;;;;;;18.20;12.23;;;;;;;16.83;81.86;101656.41;6126153;23;20041;-82
2022/07/31 03:40:37;;;;;;;14.80;12.32;;;;;;;16.87;82.40;101654.38;6126137;23;20049;-82
2022/07/31 03:43:03;;;;;;;17.13;13.98;;;;;;;16.91;81.28;101653.19;6126040;23;20002;-82
2022/07/31 03:45:30;;;;;;;19.35;14.05;;;;;;;17.00;81.43;101662.94;6114202;23;20010;-82
2022/07/31 03:47:55;;;;;;;19.52;14.88;;;;;;;17.03;81.44;101652.28;6125733;23;20002;-81
2022/07/31 03:50:22;;;;;;;19.35;16.20;;;;;;;17.04;81.14;101658.31;6126480;23;20017;-82
2022/07/31 03:52:49;;;;;;;19.10;15.85;;;;;;;17.07;81.24;101663.28;6126259;23;20006;-78
2022/07/31 03:55:15;;;;;;;20.27;16.27;;;;;;;17.03;81.42;101647.06;6126283;23;20009;-74
2022/07/31 03:57:41;;;;;;;25.80;17.48;;;;;;;17.08;81.30;101660.56;6125843;23;20457;-76
2022/07/31 04:00:08;;;;;;;22.92;18.45;;;;;;;17.13;80.72;101655.00;6125586;23;20002;-81
2022/07/31 04:02:34;;;;;;;21.55;17.40;;;;;;;17.13;81.21;101658.44;6125688;23;20344;-76
2022/07/31 04:04:59;;;;;;;23.27;18.05;;;;;;;17.10;81.34;101665.66;6125861;23;19998;-82
2022/07/31 04:07:25;;;;;;;25.77;17.85;;;;;;;16.97;81.27;101641.47;6126273;23;20006;-80
2022/07/31 04:09:51;;;;;;;25.52;17.98;;;;;;;17.09;81.04;101654.41;6125895;23;20010;-74
2022/07/31 04:12:16;;;;;;;22.55;17.35;;;;;;;17.14;81.37;101654.88;6125775;23;20002;-82
2022/07/31 04:14:41;;;;;;;22.55;17.35;;;;;;;17.14;81.15;101657.50;6125596;23;20002;-81
2022/07/31 04:17:07;;;;;;;24.60;18.05;;;;;;;17.23;81.32;101666.41;6125476;23;20021;-81
2022/07/31 04:19:33;;;;;;;22.17;18.02;;;;;;;17.20;81.37;101670.06;6125986;23;20081;-79
2022/07/31 04:21:59;;;;;;;25.65;19.15;;;;;;;17.11;81.18;101641.25;6125823;23;20417;-72
2022/07/31 04:24:24;;;;;;;26.08;18.90;;;;;;;17.13;80.99;101650.63;6125951;23;20006;-73
2022/07/31 04:26:50;;;;;;;22.08;19.00;;;;;;;17.23;81.36;101671.63;6126237;23;20064;-73
2022/07/31 04:29:16;;;;;;;26.45;20.70;;;;;;;17.23;81.06;101668.19;6125458;23;19998;-76
2022/07/31 04:31:41;;;;;;;27.42;19.70;;;;;;;17.28;81.22;101679.06;6125712;23;20095;-72
2022/07/31 04:34:07;;;;;;;24.63;20.00;;;;;;;17.27;80.94;101677.41;6125914;23;20080;-72
2022/07/31 04:36:32;;;;;;;24.27;20.25;;;;;;;17.32;80.73;101675.28;6125657;23;20002;-81
2022/07/31 04:38:59;;;;;;;29.55;19.73;;;;;;;17.27;81.02;101664.38;6126082;23;20101;-72
2022/07/31 04:41:24;;;;;;;27.85;19.98;;;;;;;17.37;80.40;101673.97;6126033;23;20002;-78
2022/07/31 04:43:49;;;;;;;25.90;19.65;;;;;;;17.37;80.69;101670.53;6128456;23;20013;-82
2022/07/31 04:46:15;;;;;;;25.70;20.77;;;;;;;17.28;80.31;101661.63;6128807;23;20009;-73
2022/07/31 04:48:40;;;;;;;26.30;19.23;;;;;;;17.29;80.53;101655.47;6129017;23;20010;-72
2022/07/31 04:51:05;;;;;;;22.70;18.73;;;;;;;17.35;80.34;101657.59;6128886;23;20446;-77
2022/07/31 04:53:31;;;;;;;22.60;18.02;;;;;;;17.35;80.20;101651.56;6128936;23;20041;-77
2022/07/31 04:58:40;;;;;;;24.13;17.48;;;;;;;17.50;79.84;101679.06;6128841;23;20017;-73
2022/07/31 05:01:05;;;;;;;21.52;17.27;;;;;;;17.39;79.38;101656.41;6128540;23;20006;-80
2022/07/31 05:03:30;;;;;;;21.27;16.60;;;;;;;17.44;79.54;101659.50;6128932;23;20006;-77
2022/07/31 05:05:56;;;;;;;21.63;17.10;;;;;;;17.45;80.29;101658.53;6128816;23;20024;-73
2022/07/31 05:08:22;;;;;;;20.90;16.45;;;;;;;17.24;80.92;101631.50;6128916;23;20010;-78
2022/07/31 05:13:32;;;;;;;23.00;16.92;;;;;;;17.35;82.38;101668.03;6117254;23;20029;-73
2022/07/31 05:15:57;;;;;;;21.05;17.10;;;;;;;17.18;82.99;101635.41;6128792;23;20006;-73
2022/07/31 05:18:23;;;;;;;20.63;15.68;;;;;;;17.30;83.45;101658.91;6125314;23;20487;-73
2022/07/31 05:20:49;;;;;;;19.88;16.17;;;;;;;17.28;84.02;101661.63;6128843;23;20054;-73
2022/07/31 05:23:14;;;;;;;23.60;15.85;;;;;;;17.26;84.60;101653.09;6128598;23;20010;-73
2022/07/31 05:25:40;;;;;;;17.48;14.98;;;;;;;17.14;84.93;101639.22;6128525;23;20020;-78
2022/07/31 05:28:05;;;;;;;18.60;14.85;;;;;;;17.30;84.64;101649.28;6128698;23;20006;-75
2022/07/31 05:30:30;;;;;;;19.58;15.73;;;;;;;17.35;85.06;101648.94;6128756;23;20006;-80
2022/07/31 05:32:57;;;;;;;16.38;13.48;;;;;;;17.45;84.24;101640.25;6128858;23;20010;-79
2022/07/31 05:35:22;;;;;;;17.23;12.63;;;;;;;17.62;83.67;101643.31;6128943;23;20012;-79
2022/07/31 05:37:47;;;;;;;14.40;11.32;;;;;;;17.77;83.00;101642.94;6129129;23;20006;-80
2022/07/31 05:40:13;;;;;;;12.05;9.73;;;;;;;17.99;82.21;101639.44;6102984;23;20002;-79
2022/07/31 05:42:38;;;;;;;17.00;9.40;;;;;;;18.06;81.18;101611.84;6128844;23;20029;-81
2022/07/31 05:45:04;;;;;;;14.50;9.93;;;;;;;18.03;80.97;101614.72;6128476;23;20332;-82
2022/07/31 05:47:29;;;;;;;9.85;6.63;;;;;;;18.43;80.00;101649.81;6128229;23;20037;-77
2022/07/31 05:49:54;;;;;;;13.20;10.27;;;;;;;18.53;80.28;101653.31;6128845;23;20002;-78
2022/07/31 05:52:20;;;;;;;9.75;7.78;;;;;;;18.37;79.12;101611.91;6128677;23;20005;-86
2022/07/31 05:54:45;;;;;;;12.30;8.55;;;;;;;18.72;78.74;101652.63;6127287;23;20013;-83
2022/07/31 05:57:11;;;;;;;11.38;7.22;;;;;;;18.87;78.16;101646.91;6099857;23;20014;-77
2022/07/31 05:59:36;;;;;;;13.68;9.15;;;;;;;18.83;78.53;101650.75;6127039;23;20034;-78
2022/07/31 06:02:02;;;;;;;13.63;8.45;;;;;;;18.79;78.34;101645.94;6127424;23;20064;-83
2022/07/31 06:04:27;;;;;;;14.65;9.25;;;;;;;18.73;78.45;101652.50;6127530;23;20032;-82
2022/07/31 06:06:52;;;;;;;8.68;6.15;;;;;;;18.61;77.84;101615.09;6127192;23;20002;-82
2022/07/31 06:09:18;;;;;;;11.07;7.30;;;;;;;18.87;77.92;101653.94;6127279;23;20081;-82
2022/07/31 06:11:43;;;;;;;10.20;7.30;;;;;;;18.90;77.89;101656.31;6126865;23;20383;-82
2022/07/31 06:14:08;;;;;;;16.23;7.50;;;;;;;18.88;78.27;101666.09;6100922;23;20020;-76
2022/07/31 06:16:33;;;;;;;12.57;8.25;;;;;;;18.72;78.44;101629.09;6126617;23;20012;-84
2022/07/31 06:18:59;;;;;;;13.50;8.00;;;;;;;18.76;78.71;101639.16;6126831;23;20014;-81
2022/07/31 06:21:24;;;;;;;14.18;9.27;;;;;;;18.69;78.62;101624.13;6127062;23;20010;-80
2022/07/31 06:23:50;;;;;;;10.82;7.43;;;;;;;18.84;78.31;101633.28;6126020;23;20020;-77
2022/07/31 06:26:15;;;;;;;11.35;9.05;;;;;;;18.99;78.78;101652.91;6127696;23;20080;-76
2022/07/31 06:28:40;;;;;;;10.38;7.82;;;;;;;19.12;78.16;101647.44;6126914;23;20092;-74
2022/07/31 06:31:05;;;;;;;12.68;9.07;;;;;;;18.93;78.13;101622.03;6126459;23;20013;-83
2022/07/31 06:33:31;;;;;;;12.77;7.93;;;;;;;19.24;77.24;101650.78;6126578;23;20009;-78
2022/07/31 06:35:56;;;;;;;10.90;7.15;;;;;;;19.36;77.35;101636.63;6126649;23;20076;-89
2022/07/31 06:38:23;;;;;;;11.55;7.00;;;;;;;19.48;77.26;101643.44;6126936;23;20487;-75
2022/07/31 06:40:49;;;;;;;14.52;8.10;;;;;;;19.39;77.41;101623.28;6126942;23;20009;-76
2022/07/31 06:43:14;;;;;;;9.80;6.80;;;;;;;19.56;76.94;101640.97;6126374;23;20084;-75
2022/07/31 06:45:41;;;;;;;12.27;8.32;;;;;;;19.62;76.85;101639.63;6126194;23;20057;-79
2022/07/31 06:48:10;;;;;;;11.00;6.38;;;;;;;19.65;75.98;101639.34;6126328;23;20486;-77
2022/07/31 06:50:36;;;;;;;12.52;7.68;;;;;;;19.61;76.08;101641.41;6126507;23;20002;-79
2022/07/31 06:53:01;;;;;;;12.68;7.88;;;;;;;19.52;76.83;101639.56;6126584;23;20032;-73
2022/07/31 06:55:26;;;;;;;10.82;7.13;;;;;;;19.48;76.79;101644.25;6126657;23;20333;-76
2022/07/31 06:57:52;;;;;;;9.88;6.15;;;;;;;19.54;77.17;101649.91;6126519;23;20081;-81
2022/07/31 07:00:17;;;;;;;15.82;8.00;;;;;;;19.57;77.45;101645.28;6126447;23;20016;-82
2022/07/31 07:02:42;;;;;;;12.23;6.85;;;;;;;19.62;77.50;101635.22;6126264;23;20009;-72
2022/07/31 07:05:08;;;;;;;10.55;6.75;;;;;;;19.80;76.31;101643.22;6125976;23;20001;-75
2022/07/31 07:07:34;;;;;;;11.00;8.10;;;;;;;19.69;77.53;101638.94;6099881;23;20006;-78
2022/07/31 07:10:00;;;;;;;13.65;7.85;;;;;;;19.86;76.39;101639.22;6126233;23;20048;-89
2022/07/31 07:12:25;;;;;;;15.95;8.35;;;;;;;19.77;76.85;101626.00;6126621;23;20076;-80
2022/07/31 07:14:50;;;;;;;13.82;7.85;;;;;;;19.94;76.55;101647.22;6126384;23;20429;-80
2022/07/31 07:17:16;;;;;;;11.52;7.28;;;;;;;19.99;75.76;101624.06;6125681;23;20010;-84
2022/07/31 07:19:41;;;;;;;16.02;8.95;;;;;;;20.17;76.01;101647.81;6100199;23;20030;-88
2022/07/31 07:22:06;;;;;;;11.82;6.97;;;;;;;20.44;75.07;101645.28;6126439;23;19998;-76
2022/07/31 07:24:32;;;;;;;10.10;5.85;;;;;;;20.69;73.34;101633.38;6126216;23;20034;-79
2022/07/31 07:26:57;;;;;;;16.00;8.48;;;;;;;20.53;73.44;101610.34;6126349;23;19997;-80
2022/07/31 07:29:23;;;;;;;13.00;8.52;;;;;;;20.82;72.59;101633.88;6126356;23;20014;-78
2022/07/31 07:31:49;;;;;;;12.27;6.57;;;;;;;20.89;72.48;101632.34;6126194;23;20033;-78
2022/07/31 07:34:14;;;;;;;13.65;7.93;;;;;;;21.03;72.57;101632.81;6125878;23;20093;-75
2022/07/31 07:36:39;;;;;;;15.82;9.60;;;;;;;21.07;72.45;101626.31;6125897;23;20005;-76
2022/07/31 07:39:05;;;;;;;14.13;7.72;;;;;;;21.16;71.98;101628.09;6126096;23;20081;-77
2022/07/31 07:41:30;;;;;;;16.02;9.73;;;;;;;20.90;73.06;101607.72;6125762;23;20016;-76
2022/07/31 07:43:55;;;;;;;13.48;9.25;;;;;;;21.27;72.28;101632.34;6126395;23;20005;-76
2022/07/31 07:46:22;;;;;;;12.70;7.63;;;;;;;21.54;69.86;101607.84;6125697;23;20002;-78
2022/07/31 07:48:49;;;;;;;15.82;10.32;;;;;;;21.80;70.18;101614.00;6124791;23;20017;-74
2022/07/31 07:51:15;;;;;;;15.98;9.45;;;;;;;21.95;68.51;101601.97;6127079;23;20417;-78
2022/07/31 07:53:40;;;;;;;16.10;10.13;;;;;;;22.15;68.69;101618.44;6126380;23;20041;-76
2022/07/31 07:56:06;;;;;;;17.02;11.20;;;;;;;21.95;68.73;101595.88;6125672;23;20001;-82
2022/07/31 07:58:31;;;;;;;18.98;11.88;;;;;;;22.02;69.37;101618.81;6126154;23;20002;-79
2022/07/31 08:00:56;;;;;;;13.93;10.07;;;;;;;22.13;68.18;101619.56;6126080;23;20301;-75
2022/07/31 08:03:22;;;;;;;14.93;9.48;;;;;;;22.14;68.51;101618.59;6125934;23;20040;-74
2022/07/31 08:05:47;;;;;;;15.05;9.65;;;;;;;21.99;69.06;101610.38;6125651;23;20073;-76
2022/07/31 08:08:12;;;;;;;18.20;10.77;;;;;;;21.95;70.10;101614.31;6125780;23;20006;-74
2022/07/31 08:10:39;;;;;;;18.52;12.07;;;;;;;21.91;68.98;101616.38;6125808;23;20005;-75
2022/07/31 08:13:04;;;;;;;19.75;13.02;;;;;;;21.82;69.82;101617.28;6125686;23;20090;-75
2022/07/31 08:15:31;;;;;;;18.75;12.25;;;;;;;21.99;69.38;101620.91;6125714;23;20035;-76
2022/07/31 08:17:56;;;;;;;18.23;11.85;;;;;;;22.07;68.44;101622.81;6125300;23;20037;-75
2022/07/31 08:20:22;;;;;;;14.55;10.18;;;;;;;22.16;68.42;101620.09;6125456;23;20424;-76
2022/07/31 08:22:47;;;;;;;18.55;12.15;;;;;;;22.22;68.94;101616.00;6125892;23;20089;-77
2022/07/31 08:25:12;;;;;;;16.90;12.82;;;;;;;22.35;68.22;101613.81;6125640;23;20388;-76
2022/07/31 08:27:37;;;;;;;16.58;11.73;;;;;;;22.49;67.79;101607.16;6125556;23;20080;-77
2022/07/31 08:30:04;;;;;;;20.83;12.75;;;;;;;22.66;68.24;101587.84;6125621;23;20077;-76
2022/07/31 08:32:29;;;;;;;16.20;9.93;;;;;;;22.99;65.68;101607.25;6125705;23;20002;-77
2022/07/31 08:34:54;;;;;;;17.67;11.57;;;;;;;23.01;66.25;101593.94;6125579;23;20017;-78
2022/07/31 08:37:21;;;;;;;15.90;11.57;;;;;;;22.97;65.60;101619.78;6125596;23;20013;-76
2022/07/31 08:39:48;;;;;;;18.60;12.90;;;;;;;22.52;66.67;101602.41;6125972;23;20006;-77
2022/07/31 08:42:14;;;;;;;15.77;11.18;;;;;;;22.31;67.61;101612.44;6124884;23;20029;-73
2022/07/31 08:44:42;;;;;;;15.98;11.73;;;;;;;22.08;69.01;101621.81;6126458;23;20009;-75
2022/07/31 08:47:09;;;;;;;16.08;11.90;;;;;;;22.01;70.09;101614.50;6125986;23;20006;-74
2022/07/31 08:49:46;;;;;;;18.83;12.32;;;;;;;21.90;69.73;101600.75;6125825;23;19998;-75
2022/07/31 08:52:20;;;;;;;14.15;10.52;;;;;;;22.17;69.49;101620.91;6125320;23;20014;-74
2022/07/31 08:54:48;;;;;;;16.05;11.85;;;;;;;22.05;70.20;101620.31;6125658;23;20002;-79
2022/07/31 08:57:14;;;;;;;15.45;11.70;;;;;;;21.96;70.03;101622.03;6125617;23;20029;-77
2022/07/31 08:59:40;;;;;;;19.38;13.07;;;;;;;21.78;71.08;101615.94;6125782;23;20006;-74
2022/07/31 09:02:07;;;;;;;16.48;12.02;;;;;;;21.67;71.68;101608.28;6125729;23;20008;-77
2022/07/31 09:04:33;;;;;;;18.50;12.95;;;;;;;21.83;70.85;101629.47;6125739;23;20061;-75
2022/07/31 09:07:00;;;;;;;17.40;12.73;;;;;;;21.82;70.99;101622.53;6125763;23;20360;-74
2022/07/31 09:09:26;;;;;;;15.13;11.50;;;;;;;21.73;71.30;101620.84;6125398;23;20005;-74
2022/07/31 09:11:53;;;;;;;15.48;10.70;;;;;;;21.86;71.08;101608.13;6125561;23;20467;-75
2022/07/31 09:14:33;;;;;;;16.73;11.60;;;;;;;21.77;71.22;101577.50;6125354;23;20789;-74
2022/07/31 09:17:01;;;;;;;18.25;11.48;;;;;;;21.94;71.28;101600.31;6125584;23;20094;-74
2022/07/31 09:19:40;;;;;;;16.00;11.48;;;;;;;21.99;71.24;101610.38;6125415;23;20002;-77
2022/07/31 09:22:06;;;;;;;14.38;9.95;;;;;;;21.99;71.24;101608.56;6125558;23;20038;-73
2022/07/31 09:24:33;;;;;;;14.38;9.98;;;;;;;22.10;70.74;101609.34;6125633;23;20010;-75
2022/07/31 09:27:05;;;;;;;16.77;11.25;;;;;;;22.07;72.02;101607.84;6125566;23;20424;-76
2022/07/31 09:29:41;;;;;;;14.65;10.73;;;;;;;22.31;70.34;101605.38;6126582;23;20006;-77
2022/07/31 09:32:08;;;;;;;15.63;10.70;;;;;;;22.39;70.40;101611.69;6127150;23;20006;-75
2022/07/31 09:34:34;;;;;;;14.88;10.98;;;;;;;22.53;70.08;101611.13;6127057;23;20108;-77
2022/07/31 09:37:17;;;;;;;16.27;11.30;;;;;;;22.57;69.72;101592.22;6126745;23;20008;-77
2022/07/31 09:39:53;;;;;;;21.48;10.93;;;;;;;22.93;68.97;101607.09;6127427;23;20006;-75
2022/07/31 09:42:20;;;;;;;16.58;11.10;;;;;;;22.89;68.62;101573.16;6127127;23;20005;-77
2022/07/31 09:44:46;;;;;;;12.77;10.40;;;;;;;23.24;67.98;101605.56;6127018;23;20009;-76
2022/07/31 09:47:30;;;;;;;14.75;10.60;;;;;;;23.54;67.68;101613.84;6127233;23;20053;-75
2022/07/31 09:50:02;;;;;;;13.52;11.05;;;;;;;23.54;66.30;101590.94;6127256;23;20432;-74
2022/07/31 09:52:29;;;;;;;14.77;10.73;;;;;;;23.57;65.64;101595.06;6126842;23;20094;-75
2022/07/31 09:55:00;;;;;;;13.45;10.77;;;;;;;23.56;65.41;101598.69;6126948;23;20002;-77
2022/07/31 09:57:26;;;;;;;14.15;10.02;;;;;;;23.30;65.44;101590.88;6127142;23;20006;-77
2022/07/31 09:59:51;;;;;;;12.82;10.23;;;;;;;23.26;66.31;101581.66;6101019;23;20017;-75
2022/07/31 10:02:17;;;;;;;14.45;10.60;;;;;;;23.43;66.35;101593.91;6127018;23;20002;-76
2022/07/31 10:04:43;;;;;;;13.70;9.50;;;;;;;23.65;64.78;101601.22;6126911;23;20009;-77
2022/07/31 10:07:11;;;;;;;14.75;10.43;;;;;;;23.75;65.78;101593.97;6126632;23;20006;-77
2022/07/31 10:09:39;;;;;;;12.43;9.00;;;;;;;23.82;63.76;101595.97;6126683;23;20336;-75
2022/07/31 10:12:09;;;;;;;13.52;9.45;;;;;;;23.80;64.97;101595.31;6127012;23;20380;-86
2022/07/31 10:14:39;;;;;;;11.70;8.33;;;;;;;23.85;64.58;101570.06;6127314;23;20013;-76
2022/07/31 10:17:06;;;;;;;14.02;10.40;;;;;;;24.18;64.34;101594.59;6126720;23;20014;-77
2022/07/31 10:19:36;;;;;;;11.65;8.88;;;;;;;24.17;63.92;101571.84;6126609;23;20009;-76
2022/07/31 10:22:04;;;;;;;10.27;8.55;;;;;;;24.37;63.79;101595.25;6126987;23;20145;-77
2022/07/31 10:24:39;;;;;;;11.98;8.27;;;;;;;24.30;63.22;101582.72;6126766;23;20503;-77
2022/07/31 10:27:05;;;;;;;9.52;7.65;;;;;;;24.38;62.21;101589.00;6126919;23;20049;-77
2022/07/31 10:29:32;;;;;;;11.05;7.82;;;;;;;24.39;62.35;101570.38;6126783;23;20052;-77
2022/07/31 10:31:58;;;;;;;11.13;7.82;;;;;;;24.36;63.49;101560.13;6126176;23;20310;-76
2022/07/31 10:34:25;;;;;;;10.68;7.75;;;;;;;24.62;62.59;101572.28;6100770;23;20017;-76
2022/07/31 10:36:57;;;;;;;10.60;6.88;;;;;;;24.81;62.59;101575.34;6126327;23;20025;-78
2022/07/31 10:39:30;;;;;;;9.48;6.50;;;;;;;25.06;61.21;101576.06;6126548;23;20057;-78
2022/07/31 10:42:05;;;;;;;11.32;6.90;;;;;;;25.27;60.44;101569.34;6126381;23;20416;-78
2022/07/31 10:44:33;;;;;;;9.48;6.55;;;;;;;25.27;59.43;101577.25;6127141;23;20074;-78
2022/07/31 10:46:59;;;;;;;8.93;6.72;;;;;;;25.04;60.38;101571.94;6126803;23;20336;-82
2022/07/31 10:49:44;;;;;;;9.77;5.82;;;;;;;24.86;61.50;101574.81;6126836;23;20077;-80
2022/07/31 10:52:10;;;;;;;10.02;6.82;;;;;;;24.69;61.65;101576.72;6126232;23;20421;-75
2022/07/31 10:54:40;;;;;;;9.85;6.93;;;;;;;24.45;61.21;101568.84;6126697;23;20002;-75
2022/07/31 10:57:05;;;;;;;10.95;6.75;;;;;;;24.07;62.43;101562.47;6126524;23;20006;-73
2022/07/31 10:59:31;;;;;;;13.82;7.00;;;;;;;23.74;63.51;101575.66;6126714;23;20471;-73
2022/07/31 11:01:56;;;;;;;15.90;6.90;;;;;;;23.47;64.82;101572.31;6126392;23;20512;-73
2022/07/31 11:04:30;;;;;;;10.80;6.88;;;;;;;23.36;65.83;101563.91;6126721;23;20022;-77
2022/07/31 11:06:56;;;;;;;11.25;6.93;;;;;;;23.30;65.71;101567.16;6126523;23;20084;-75
2022/07/31 11:09:23;;;;;;;10.63;7.18;;;;;;;23.30;65.86;101559.25;6126588;23;20085;-74
2022/07/31 11:11:49;;;;;;;11.07;7.13;;;;;;;23.39;65.45;101548.56;6126408;23;20037;-78
2022/07/31 11:14:15;;;;;;;10.57;6.45;;;;;;;23.80;64.97;101540.75;6126106;23;20009;-76
2022/07/31 11:16:50;;;;;;;9.25;5.82;;;;;;;24.42;64.79;101545.44;6126221;23;20010;-75
2022/07/31 11:19:16;;;;;;;8.65;6.03;;;;;;;24.79;62.14;101539.53;6125996;23;20033;-75